Time;durP1;ratioP1;P1;durP2;ratioP2;P2;SDS_P1;SDS_P2;PMS_P1;PMS_P2;Temp;Humidity;BMP_temperature;BMP_pressure;BME280_temperature;BME280_humidity;BME280_pressure;Samples;Min_cycle;Max_cycle;Signal;HPM_P1;HPM_P2
2021/06/18 00:01:22;;;;;;;6.03;4.38;;;;;;;21.03;64.04;99607.00;5077725;28;20021;-77
2021/06/18 00:03:50;;;;;;;4.30;3.90;;;;;;;21.02;64.17;99598.13;5077751;28;20101;-75
2021/06/18 00:06:17;;;;;;;5.30;4.10;;;;;;;20.68;64.08;99567.75;5078016;28;20024;-75
2021/06/18 00:08:43;;;;;;;4.70;3.83;;;;;;;20.71;63.94;99553.03;5076386;28;20028;-75
2021/06/18 00:11:08;;;;;;;5.32;4.10;;;;;;;20.93;64.08;99596.91;5077541;28;20025;-75
2021/06/18 00:13:34;;;;;;;4.75;3.92;;;;;;;20.85;64.07;99584.69;5077874;28;20024;-76
2021/06/18 00:15:59;;;;;;;6.00;3.97;;;;;;;20.53;64.00;99527.25;5073607;28;20017;-76
2021/06/18 00:18:24;;;;;;;5.65;3.50;;;;;;;20.96;63.83;99584.88;5073151;28;20036;-76
2021/06/18 00:20:50;;;;;;;3.80;3.47;;;;;;;20.55;63.99;99547.44;5074392;28;20118;-75
2021/06/18 00:23:15;;;;;;;3.80;3.50;;;;;;;20.66;63.70;99559.13;5074232;28;20028;-74
2021/06/18 00:25:43;;;;;;;3.42;3.13;;;;;;;20.39;63.68;99528.59;5073014;28;20048;-74
2021/06/18 00:28:08;;;;;;;4.35;3.17;;;;;;;20.28;63.69;99514.22;5074203;28;20100;-74
2021/06/18 00:30:34;;;;;;;3.53;3.22;;;;;;;20.74;63.64;99582.88;5073025;28;20024;-75
2021/06/18 00:32:59;;;;;;;4.38;3.30;;;;;;;20.59;63.85;99574.56;5074660;28;20020;-76
2021/06/18 00:35:26;;;;;;;3.53;3.00;;;;;;;18.73;63.95;99284.97;5072753;28;20032;-74
2021/06/18 00:37:51;;;;;;;3.72;3.33;;;;;;;20.62;63.83;99576.78;5073882;28;20493;-76
2021/06/18 00:40:17;;;;;;;7.15;3.70;;;;;;;20.51;63.92;99558.88;5073754;28;20066;-74
2021/06/18 00:42:42;;;;;;;5.03;3.40;;;;;;;20.52;63.77;99555.16;5073771;28;20481;-76
2021/06/18 00:45:09;;;;;;;3.45;3.15;;;;;;;20.67;63.61;99571.50;5073785;28;20025;-75
2021/06/18 00:47:40;;;;;;;4.40;3.30;;;;;;;20.38;63.61;99529.66;5073714;28;20016;-75
2021/06/18 00:50:06;;;;;;;4.45;3.78;;;;;;;20.25;63.46;99504.78;5073641;28;20024;-74
2021/06/18 00:52:32;;;;;;;3.95;2.95;;;;;;;20.71;63.18;99574.50;5073596;28;20024;-75
2021/06/18 00:54:57;;;;;;;6.45;3.30;;;;;;;20.78;63.05;99569.78;5073999;28;20031;-75
2021/06/18 00:57:23;;;;;;;3.25;2.90;;;;;;;20.65;63.10;99544.09;5073460;28;20024;-76
2021/06/18 00:59:48;;;;;;;4.43;3.00;;;;;;;20.18;62.68;99460.41;5073295;28;20028;-75
2021/06/18 01:02:13;;;;;;;5.38;3.03;;;;;;;20.44;62.62;99492.00;5073289;28;20016;-75
2021/06/18 01:04:41;;;;;;;4.82;2.97;;;;;;;20.83;62.66;99565.34;5073476;28;20024;-76
2021/06/18 01:07:24;;;;;;;3.33;2.97;;;;;;;20.84;62.44;99566.97;5073501;28;20021;-75
2021/06/18 01:10:12;;;;;;;4.15;2.95;;;;;;;20.81;62.36;99564.78;5072210;28;20029;-76
2021/06/18 01:13:22;;;;;;;3.00;2.50;;;;;;;20.73;62.32;99572.38;5073479;28;20020;-75
2021/06/18 01:16:02;;;;;;;4.97;3.35;;;;;;;20.71;62.33;99567.28;5073120;28;20027;-75
2021/06/18 01:18:33;;;;;;;6.57;3.10;;;;;;;20.75;62.22;99564.91;5072912;28;20021;-75
2021/06/18 01:21:01;;;;;;;;;;;;;;;20.61;62.46;99559.06;5073583;28;20523;-76
2021/06/18 01:23:29;;;;;;;3.90;3.05;;;;;;;20.77;62.04;99568.97;5073271;28;19947;-75
2021/06/18 01:26:24;;;;;;;3.80;2.67;;;;;;;20.80;61.61;99559.63;5071606;28;20020;-76
2021/06/18 01:28:52;;;;;;;3.20;2.63;;;;;;;20.77;61.85;99563.59;5072748;28;20051;-76
2021/06/18 01:31:21;;;;;;;10.75;3.40;;;;;;;20.01;61.35;99455.00;5072667;28;20404;-76
2021/06/18 01:34:04;;;;;;;4.43;2.92;;;;;;;20.77;61.69;99570.84;5073171;28;20511;-75
2021/06/18 01:36:31;;;;;;;4.07;2.60;;;;;;;20.79;61.57;99576.78;5072806;28;20078;-76
2021/06/18 01:38:59;;;;;;;2.97;2.67;;;;;;;20.81;61.40;99577.38;5072444;28;20028;-75
2021/06/18 01:41:28;;;;;;;6.03;2.78;;;;;;;20.71;61.43;99559.22;5072880;28;20045;-75
2021/06/18 01:43:53;;;;;;;3.70;2.80;;;;;;;20.58;61.48;99546.13;5073014;28;20024;-75
2021/06/18 01:46:24;;;;;;;3.90;2.83;;;;;;;20.45;61.53;99533.03;5072745;28;20027;-76
2021/06/18 01:48:56;;;;;;;4.60;3.00;;;;;;;20.64;61.65;99566.63;5072808;28;20021;-75
2021/06/18 01:51:25;;;;;;;4.20;2.78;;;;;;;20.41;61.58;99521.16;5072754;28;20471;-75
2021/06/18 01:53:53;;;;;;;5.53;2.55;;;;;;;20.80;61.62;99578.41;5072221;28;20099;-75
2021/06/18 01:56:20;;;;;;;4.10;3.03;;;;;;;20.77;61.51;99585.06;5070893;28;20017;-75
2021/06/18 01:58:48;;;;;;;4.75;2.88;;;;;;;20.60;61.71;99552.06;5071259;28;20016;-75
2021/06/18 02:01:15;;;;;;;3.47;2.72;;;;;;;20.81;61.76;99574.69;5072661;28;20024;-75
2021/06/18 02:03:44;;;;;;;3.92;3.17;;;;;;;20.80;61.74;99573.84;5071167;28;20028;-74
2021/06/18 02:06:10;;;;;;;4.30;2.92;;;;;;;20.72;61.68;99552.78;5071079;28;20499;-75
2021/06/18 02:08:37;;;;;;;4.28;3.28;;;;;;;20.86;61.69;99588.19;5072467;28;20016;-75
2021/06/18 02:11:04;;;;;;;6.68;3.28;;;;;;;20.72;61.62;99555.47;5073001;28;20029;-76
2021/06/18 02:13:31;;;;;;;3.80;3.40;;;;;;;20.50;61.70;99520.53;5070825;28;20055;-75
2021/06/18 02:15:59;;;;;;;5.00;2.80;;;;;;;20.19;61.63;99478.94;5072290;28;20024;-75
2021/06/18 02:18:26;;;;;;;4.72;3.20;;;;;;;20.78;61.87;99578.66;5072072;28;20029;-75
2021/06/18 02:20:54;;;;;;;3.80;2.53;;;;;;;20.74;61.93;99574.84;5071987;28;20021;-76
2021/06/18 02:23:22;;;;;;;3.13;2.75;;;;;;;20.58;62.07;99554.16;5071870;28;20219;-75
2021/06/18 02:25:49;;;;;;;4.53;2.80;;;;;;;20.47;62.12;99553.19;5071980;28;20035;-75
2021/06/18 02:28:15;;;;;;;4.82;2.83;;;;;;;20.23;61.95;99514.94;5071867;28;20086;-75
2021/06/18 02:30:41;;;;;;;4.25;2.90;;;;;;;20.44;61.84;99547.50;5070752;28;20036;-74
2021/06/18 02:33:13;;;;;;;4.88;2.88;;;;;;;20.70;62.18;99583.59;5071908;28;20025;-76
2021/06/18 02:35:40;;;;;;;2.60;2.40;;;;;;;20.68;61.97;99583.84;5072021;28;20047;-75
2021/06/18 02:38:07;;;;;;;7.88;3.13;;;;;;;20.56;62.04;99572.38;5069835;28;20021;-74
2021/06/18 02:40:33;;;;;;;6.25;3.28;;;;;;;20.35;62.16;99555.09;5070343;28;20027;-75
2021/06/18 02:42:58;;;;;;;3.13;2.47;;;;;;;20.52;61.96;99572.06;5071584;28;20497;-75
2021/06/18 02:45:24;;;;;;;6.20;3.22;;;;;;;20.14;62.22;99532.47;5071572;28;20107;-76
2021/06/18 02:48:05;;;;;;;3.40;2.83;;;;;;;20.54;62.39;99590.59;5071689;28;20154;-75
2021/06/18 02:50:42;;;;;;;3.33;3.00;;;;;;;20.14;62.34;99542.38;5070180;28;20070;-76
2021/06/18 02:53:13;;;;;;;4.03;2.78;;;;;;;20.53;62.16;99592.44;5071287;28;20023;-75
2021/06/18 02:55:50;;;;;;;3.22;2.92;;;;;;;20.14;62.53;99537.81;5071348;28;20574;-75
2021/06/18 02:58:23;;;;;;;3.63;2.67;;;;;;;20.23;62.74;99551.66;5071494;28;20040;-75
2021/06/18 03:00:49;;;;;;;3.30;3.00;;;;;;;20.38;62.86;99570.69;5071840;28;20028;-76
2021/06/18 03:03:20;;;;;;;3.67;2.55;;;;;;;20.51;62.89;99581.16;5071690;28;20028;-75
2021/06/18 03:05:47;;;;;;;5.25;3.20;;;;;;;20.10;62.82;99512.56;5071623;28;20021;-74
2021/06/18 03:08:14;;;;;;;3.92;3.00;;;;;;;20.21;62.65;99537.69;5071506;28;20082;-75
2021/06/18 03:10:41;;;;;;;4.72;3.05;;;;;;;20.56;62.89;99583.09;5071895;28;20021;-75
2021/06/18 03:13:12;;;;;;;5.10;2.70;;;;;;;20.52;62.75;99582.78;5071713;28;20081;-75
2021/06/18 03:15:42;;;;;;;3.72;3.20;;;;;;;20.19;62.97;99524.50;5071224;28;20012;-75
2021/06/18 03:18:09;;;;;;;5.00;3.40;;;;;;;20.40;63.04;99567.81;5071041;28;20039;-75
2021/06/18 03:20:36;;;;;;;4.13;3.00;;;;;;;20.46;62.87;99581.06;5071381;28;20409;-75
2021/06/18 03:23:05;;;;;;;6.00;3.47;;;;;;;20.39;63.25;99582.25;5071541;28;20020;-75
2021/06/18 03:25:34;;;;;;;7.53;3.35;;;;;;;19.91;63.41;99511.91;5071464;28;20089;-76
2021/06/18 03:28:00;;;;;;;7.13;3.55;;;;;;;20.33;63.16;99570.59;5071353;28;20479;-75
2021/06/18 03:30:26;;;;;;;5.90;3.92;;;;;;;19.86;63.59;99517.19;5070136;28;20055;-76
2021/06/18 03:32:53;;;;;;;4.90;4.07;;;;;;;19.50;63.81;99480.81;5071481;28;20024;-76
2021/06/18 03:35:21;;;;;;;5.47;3.95;;;;;;;20.00;63.87;99557.91;5071339;28;20028;-76
2021/06/18 03:37:48;;;;;;;4.65;4.15;;;;;;;19.98;63.94;99554.66;5071444;28;20058;-75
2021/06/18 03:40:14;;;;;;;7.93;3.97;;;;;;;19.65;64.30;99520.50;5071121;28;20086;-76
2021/06/18 03:42:39;;;;;;;4.43;3.42;;;;;;;19.74;64.17;99542.38;5071348;28;20029;-76
2021/06/18 03:45:07;;;;;;;6.15;4.50;;;;;;;20.17;64.18;99580.25;5071021;28;20021;-76
2021/06/18 03:47:34;;;;;;;5.25;4.22;;;;;;;20.16;63.84;99573.25;5070214;28;20402;-76
2021/06/18 03:50:01;;;;;;;4.40;3.72;;;;;;;20.15;63.87;99571.63;5073786;28;20020;-76
2021/06/18 03:52:27;;;;;;;7.60;5.18;;;;;;;19.66;64.21;99532.84;5074565;28;20027;-75
2021/06/18 03:54:53;;;;;;;6.25;4.28;;;;;;;20.07;64.24;99585.41;5074963;28;20017;-75
2021/06/18 03:57:20;;;;;;;7.47;4.07;;;;;;;19.87;64.09;99568.91;5074740;28;20025;-75
2021/06/18 03:59:46;;;;;;;6.03;4.03;;;;;;;19.87;64.21;99552.81;5073253;28;20097;-75
2021/06/18 04:02:14;;;;;;;3.70;3.25;;;;;;;19.94;64.18;99542.78;5073194;28;20052;-76
2021/06/18 04:04:40;;;;;;;5.85;4.15;;;;;;;20.16;64.48;99581.28;5073356;28;20047;-75
2021/06/18 04:07:07;;;;;;;8.30;4.32;;;;;;;19.73;64.24;99500.56;5074544;28;20017;-77
2021/06/18 04:09:32;;;;;;;5.47;4.47;;;;;;;20.20;64.47;99582.44;5074563;28;20024;-76
2021/06/18 04:12:00;;;;;;;6.30;3.90;;;;;;;19.99;64.49;99540.19;5074320;28;20092;-75
2021/06/18 04:14:29;;;;;;;6.88;4.28;;;;;;;19.92;64.40;99526.94;5074451;28;20020;-75
2021/06/18 04:16:55;;;;;;;4.72;4.18;;;;;;;20.03;64.24;99529.81;5073071;28;20496;-76
2021/06/18 04:19:21;;;;;;;7.18;4.00;;;;;;;20.15;64.57;99563.59;5074326;28;20016;-76
2021/06/18 04:21:47;;;;;;;4.70;4.13;;;;;;;20.29;64.66;99569.47;5074196;28;20021;-75
2021/06/18 04:24:15;;;;;;;10.02;4.70;;;;;;;20.29;64.67;99578.31;5072666;28;20021;-75
2021/06/18 04:26:42;;;;;;;4.60;4.15;;;;;;;19.96;64.32;99508.50;5074113;28;20100;-75
2021/06/18 04:29:08;;;;;;;5.15;4.03;;;;;;;20.44;64.78;99577.00;5073941;28;20039;-73
2021/06/18 04:31:35;;;;;;;6.75;4.40;;;;;;;20.12;64.41;99523.03;5073971;28;20036;-74
2021/06/18 04:34:01;;;;;;;6.20;4.32;;;;;;;20.41;64.90;99585.53;5073979;28;20036;-75
2021/06/18 04:36:26;;;;;;;6.50;4.47;;;;;;;20.08;64.77;99527.25;5073978;28;20025;-74
2021/06/18 04:38:52;;;;;;;6.97;4.63;;;;;;;20.24;65.17;99556.78;5074075;28;20077;-75
2021/06/18 04:41:17;;;;;;;6.85;5.22;;;;;;;20.37;65.15;99585.16;5072826;28;20029;-73
2021/06/18 04:43:43;;;;;;;4.82;4.43;;;;;;;20.30;65.46;99579.94;5073748;28;20025;-75
2021/06/18 04:46:08;;;;;;;6.97;4.88;;;;;;;19.96;65.47;99519.22;5073754;28;20096;-75
2021/06/18 04:48:35;;;;;;;5.32;4.82;;;;;;;19.89;65.61;99505.16;5073631;28;20027;-75
2021/06/18 04:51:00;;;;;;;6.05;4.53;;;;;;;20.37;65.62;99589.72;5073730;28;20154;-76
2021/06/18 04:53:26;;;;;;;9.32;4.70;;;;;;;20.46;65.34;99573.03;5073598;28;20044;-76
2021/06/18 04:55:52;;;;;;;7.22;4.13;;;;;;;20.27;65.25;99548.25;5073184;28;20020;-74
2021/06/18 04:58:17;;;;;;;8.20;4.95;;;;;;;20.24;65.27;99538.00;5073320;28;20058;-76
2021/06/18 05:00:43;;;;;;;7.43;4.38;;;;;;;20.33;64.91;99510.81;5073251;28;20557;-76
2021/06/18 05:03:08;;;;;;;7.43;4.93;;;;;;;20.72;64.86;99563.53;5073471;28;20025;-75
2021/06/18 05:05:34;;;;;;;5.20;4.70;;;;;;;20.74;64.86;99568.66;5072052;28;20027;-75
2021/06/18 05:08:00;;;;;;;6.72;4.05;;;;;;;20.71;64.89;99574.50;5071328;28;20096;-75
2021/06/18 05:10:26;;;;;;;4.63;4.22;;;;;;;20.69;64.79;99558.66;5056770;28;20104;-75
2021/06/18 05:12:52;;;;;;;5.97;4.53;;;;;;;20.82;64.66;99569.09;5069798;28;20033;-74
2021/06/18 05:15:18;;;;;;;6.93;4.82;;;;;;;20.75;64.49;99568.41;5054490;28;20020;-75
2021/06/18 05:17:44;;;;;;;6.10;4.65;;;;;;;20.81;64.66;99563.97;5066423;28;20413;-74
2021/06/18 05:20:10;;;;;;;4.70;4.20;;;;;;;20.80;64.52;99565.00;5072354;28;20029;-75
2021/06/18 05:22:35;;;;;;;4.50;3.70;;;;;;;20.96;64.17;99568.75;5053741;28;20025;-75
2021/06/18 05:25:01;;;;;;;5.78;4.35;;;;;;;20.65;64.27;99506.53;5053102;28;20052;-76
2021/06/18 05:27:27;;;;;;;4.85;4.20;;;;;;;20.57;64.29;99493.53;5065191;28;20092;-76
2021/06/18 05:29:53;;;;;;;8.00;4.13;;;;;;;20.71;63.85;99502.88;5051981;28;20061;-74
2021/06/18 05:32:18;;;;;;;7.78;5.18;;;;;;;21.25;63.73;99571.09;5062788;28;20021;-75
2021/06/18 05:34:44;;;;;;;9.23;6.15;;;;;;;20.91;63.50;99513.13;5054445;28;20124;-75
2021/06/18 05:37:10;;;;;;;5.03;4.53;;;;;;;21.02;63.27;99514.09;5053036;28;20028;-76
2021/06/18 05:39:36;;;;;;;7.50;6.38;;;;;;;21.01;63.57;99525.88;5051626;28;20421;-76
2021/06/18 05:42:01;;;;;;;5.40;4.40;;;;;;;21.02;63.38;99519.47;5070593;28;20029;-75
2021/06/18 05:44:27;;;;;;;8.68;4.38;;;;;;;21.27;63.40;99560.13;5065666;28;20070;-75
2021/06/18 05:46:52;;;;;;;7.55;4.75;;;;;;;21.11;63.20;99520.66;5069480;28;20094;-76
2021/06/18 05:49:18;;;;;;;6.53;5.13;;;;;;;21.29;63.24;99547.25;5065535;28;20558;-75
2021/06/18 05:51:43;;;;;;;6.57;4.68;;;;;;;21.66;62.83;99569.00;5065604;28;20140;-74
2021/06/18 05:54:09;;;;;;;7.22;4.15;;;;;;;21.37;62.52;99506.53;5052572;28;20387;-76
2021/06/18 05:56:34;;;;;;;6.60;5.30;;;;;;;21.86;62.33;99571.13;5052109;28;20024;-76
2021/06/18 05:58:59;;;;;;;6.88;4.68;;;;;;;21.47;61.72;99493.25;5051932;28;20036;-75
2021/06/18 06:01:25;;;;;;;7.03;3.50;;;;;;;21.90;61.60;99550.72;5053566;28;20036;-76
2021/06/18 06:03:54;;;;;;;10.38;5.70;;;;;;;21.62;61.25;99491.81;5052398;28;20123;-76
2021/06/18 06:06:20;;;;;;;11.70;10.30;;;;;;;22.06;61.15;99546.38;5054802;28;20088;-75
2021/06/18 06:08:46;;;;;;;7.43;5.05;;;;;;;22.19;60.71;99565.59;5057489;28;20484;-76
2021/06/18 06:11:12;;;;;;;7.53;4.78;;;;;;;21.82;60.22;99503.59;5062318;28;20035;-75
2021/06/18 06:13:38;;;;;;;7.80;5.70;;;;;;;21.81;60.06;99495.81;5059799;28;20021;-76
2021/06/18 06:16:04;;;;;;;7.10;5.05;;;;;;;21.82;59.88;99492.84;5055388;28;20580;-76
2021/06/18 06:18:29;;;;;;;8.77;3.83;;;;;;;22.17;59.56;99550.78;5058678;28;20146;-76
2021/06/18 06:20:54;;;;;;;3.90;3.50;;;;;;;21.84;59.19;99484.53;5058462;28;20420;-75
2021/06/18 06:23:20;;;;;;;4.70;3.22;;;;;;;22.29;59.03;99564.88;5058086;28;20032;-75
2021/06/18 06:25:46;;;;;;;3.55;2.88;;;;;;;22.04;58.95;99535.06;5052966;28;20123;-75
2021/06/18 06:28:11;;;;;;;4.00;3.60;;;;;;;21.70;58.86;99465.31;5061025;28;20516;-75
2021/06/18 06:30:37;;;;;;;4.38;3.80;;;;;;;22.43;58.89;99570.69;5071019;28;20024;-75
2021/06/18 06:33:03;;;;;;;4.68;3.67;;;;;;;22.36;58.60;99557.47;5061724;28;20100;-75
2021/06/18 06:35:28;;;;;;;5.78;4.35;;;;;;;22.43;58.53;99550.00;5057533;28;20025;-75
2021/06/18 06:37:54;;;;;;;7.00;4.10;;;;;;;22.24;58.52;99511.03;5071051;28;20070;-75
2021/06/18 06:40:22;;;;;;;5.80;4.32;;;;;;;22.72;58.35;99563.16;5061329;28;20025;-73
2021/06/18 06:42:48;;;;;;;6.75;4.55;;;;;;;22.70;58.39;99555.34;5051203;28;20021;-74
2021/06/18 06:45:14;;;;;;;5.72;4.18;;;;;;;22.48;57.96;99496.22;5051001;28;20414;-73
2021/06/18 06:47:40;;;;;;;6.20;4.47;;;;;;;22.94;57.74;99569.28;5051125;28;20035;-76
2021/06/18 06:50:08;;;;;;;4.18;3.67;;;;;;;22.96;57.24;99560.94;5050963;28;20422;-76
2021/06/18 06:52:33;;;;;;;6.18;4.43;;;;;;;22.37;57.46;99474.88;5050962;28;20531;-75
2021/06/18 06:54:59;;;;;;;4.65;4.25;;;;;;;22.85;57.37;99537.69;5050976;28;20025;-74
2021/06/18 06:57:24;;;;;;;5.75;4.47;;;;;;;22.69;57.57;99525.97;5051016;28;20039;-74
2021/06/18 06:59:50;;;;;;;8.60;4.65;;;;;;;23.08;57.50;99562.41;5058751;28;20058;-75
2021/06/18 07:02:15;;;;;;;5.30;4.80;;;;;;;23.15;57.45;99556.78;5050602;28;20025;-76
2021/06/18 07:04:40;;;;;;;8.50;4.75;;;;;;;22.81;57.07;99507.78;5054916;28;20032;-74
2021/06/18 07:07:06;;;;;;;6.72;5.55;;;;;;;22.98;57.03;99523.78;5065768;28;20086;-73
2021/06/18 07:09:38;;;;;;;5.30;3.97;;;;;;;23.23;56.25;99559.00;5057910;28;20040;-73
2021/06/18 07:12:05;;;;;;;7.53;4.43;;;;;;;23.13;56.15;99532.81;5050563;28;20013;-75
2021/06/18 07:14:30;;;;;;;4.65;4.22;;;;;;;23.29;55.81;99530.19;5049387;28;20033;-74
2021/06/18 07:16:55;;;;;;;7.10;4.32;;;;;;;22.85;55.56;99444.28;5055295;28;20020;-73
2021/06/18 07:19:21;;;;;;;7.47;4.28;;;;;;;23.51;55.75;99538.13;5063424;28;20116;-76
2021/06/18 07:21:48;;;;;;;8.57;4.65;;;;;;;23.52;55.43;99553.22;5053974;28;20029;-76
2021/06/18 07:24:14;;;;;;;5.10;4.10;;;;;;;22.87;55.24;99446.72;5050402;28;20425;-74
2021/06/18 07:26:40;;;;;;;7.80;4.85;;;;;;;22.79;55.39;99431.84;5057824;28;20037;-76
2021/06/18 07:29:05;;;;;;;5.60;4.10;;;;;;;23.00;54.91;99460.53;5055719;28;20033;-76
2021/06/18 07:31:31;;;;;;;4.93;3.95;;;;;;;23.46;54.79;99531.63;5054007;28;20021;-74
2021/06/18 07:33:56;;;;;;;5.22;3.90;;;;;;;22.96;54.62;99429.81;5054306;28;20032;-76
2021/06/18 07:36:22;;;;;;;5.85;4.20;;;;;;;23.68;55.01;99554.94;5054569;28;20079;-73
2021/06/18 07:38:48;;;;;;;6.50;4.35;;;;;;;23.52;54.78;99513.59;5054542;28;20386;-76
2021/06/18 07:41:14;;;;;;;5.68;4.78;;;;;;;23.50;55.05;99488.78;5054345;28;20032;-76
2021/06/18 07:43:39;;;;;;;6.55;4.30;;;;;;;23.59;55.14;99471.06;5054294;28;20493;-76
2021/06/18 07:46:05;;;;;;;8.15;5.07;;;;;;;23.64;55.00;99468.38;5054468;28;20513;-76
2021/06/18 07:48:30;;;;;;;6.38;3.90;;;;;;;24.11;54.44;99528.66;5052934;28;20107;-75
2021/06/18 07:50:56;;;;;;;5.05;3.97;;;;;;;24.13;54.46;99531.91;5054319;28;20108;-76
2021/06/18 07:53:21;;;;;;;5.80;5.28;;;;;;;23.69;54.24;99437.94;5054116;28;20083;-75
2021/06/18 07:55:49;;;;;;;6.63;4.10;;;;;;;23.89;54.02;99454.19;5053806;28;20037;-75
2021/06/18 07:58:14;;;;;;;5.40;4.05;;;;;;;23.85;54.22;99436.13;5053579;28;20021;-75
2021/06/18 08:00:39;;;;;;;8.57;4.78;;;;;;;24.49;53.71;99521.97;5053907;28;20033;-76
2021/06/18 08:03:06;;;;;;;5.45;4.20;;;;;;;24.60;53.19;99531.72;5056615;28;20028;-75
2021/06/18 08:05:32;;;;;;;5.25;3.90;;;;;;;24.36;52.62;99477.44;5054146;28;20083;-76
2021/06/18 08:07:57;;;;;;;4.63;3.67;;;;;;;24.38;52.99;99475.28;5053923;28;20025;-76
2021/06/18 08:10:23;;;;;;;8.60;3.85;;;;;;;24.39;52.64;99449.94;5054042;28;20463;-76
2021/06/18 08:12:48;;;;;;;7.07;4.10;;;;;;;24.57;52.47;99484.50;5054065;28;20033;-75
2021/06/18 08:15:14;;;;;;;8.82;4.38;;;;;;;24.52;52.51;99467.47;5054451;28;20464;-75
2021/06/18 08:17:40;;;;;;;13.93;8.15;;;;;;;25.03;51.98;99519.56;5052749;28;20036;-74
2021/06/18 08:20:06;;;;;;;10.73;5.55;;;;;;;24.87;51.81;99472.03;5052633;28;20029;-76
2021/06/18 08:22:32;;;;;;;6.80;4.68;;;;;;;25.16;51.67;99519.00;5053878;28;20501;-76
2021/06/18 08:24:58;;;;;;;6.03;4.50;;;;;;;25.16;51.43;99518.19;5053963;28;20055;-75
2021/06/18 08:27:24;;;;;;;17.92;7.55;;;;;;;24.93;50.98;99471.75;5053679;28;20460;-75
2021/06/18 08:29:52;;;;;;;6.32;4.35;;;;;;;25.27;50.05;99511.69;5053421;28;20029;-73
2021/06/18 08:32:17;;;;;;;4.40;3.40;;;;;;;25.33;49.33;99516.81;5053878;28;20029;-77
2021/06/18 08:34:43;;;;;;;7.85;5.97;;;;;;;25.04;48.86;99442.84;5053497;28;20047;-75
2021/06/18 08:37:08;;;;;;;8.98;6.10;;;;;;;24.99;48.82;99422.06;5052028;28;20108;-76
2021/06/18 08:39:34;;;;;;;9.35;5.38;;;;;;;25.62;48.57;99506.13;5053649;28;20032;-75
2021/06/18 08:42:00;;;;;;;22.98;14.68;;;;;;;25.46;48.39;99463.25;5053579;28;20087;-75
2021/06/18 08:44:25;;;;;;;23.90;17.05;;;;;;;25.93;47.74;99506.00;5053483;28;20505;-76
2021/06/18 08:46:51;;;;;;;25.45;17.88;;;;;;;26.13;47.32;99516.72;5053148;28;20091;-75
2021/06/18 08:49:16;;;;;;;10.38;6.65;;;;;;;26.23;46.93;99508.53;5053193;28;20044;-74
2021/06/18 08:51:41;;;;;;;7.63;3.83;;;;;;;26.30;46.56;99497.41;5053350;28;20035;-75
2021/06/18 08:54:07;;;;;;;5.68;4.10;;;;;;;26.13;47.25;99486.16;5053339;28;20457;-74
2021/06/18 08:56:33;;;;;;;17.30;9.48;;;;;;;26.06;47.70;99461.31;5053243;28;20056;-75
2021/06/18 08:58:58;;;;;;;22.95;13.15;;;;;;;26.31;47.59;99498.19;5052837;28;20036;-75
2021/06/18 09:01:23;;;;;;;21.20;13.65;;;;;;;26.05;46.83;99449.69;5053072;28;20025;-76
2021/06/18 09:03:51;;;;;;;18.63;13.02;;;;;;;26.40;46.64;99494.63;5053028;28;20025;-76
2021/06/18 09:06:29;;;;;;;14.52;9.07;;;;;;;26.49;46.10;99503.75;5052730;28;20029;-74
2021/06/18 09:09:14;;;;;;;5.10;3.53;;;;;;;26.40;44.21;99491.94;5052859;28;20021;-73
2021/06/18 09:11:50;;;;;;;3.53;3.03;;;;;;;26.46;44.82;99504.34;5052933;28;20028;-75
2021/06/18 09:14:20;;;;;;;4.03;3.60;;;;;;;26.47;44.96;99503.25;5052566;28;20032;-75
2021/06/18 09:17:17;;;;;;;5.15;3.20;;;;;;;26.07;44.89;99450.22;5052506;28;20039;-76
2021/06/18 09:19:48;;;;;;;4.70;3.55;;;;;;;26.32;45.43;99487.09;5052695;28;20025;-73
2021/06/18 09:22:23;;;;;;;4.05;3.10;;;;;;;26.50;45.04;99502.69;5052752;28;20021;-74
2021/06/18 09:25:10;;;;;;;3.88;2.58;;;;;;;26.56;44.89;99506.16;5052696;28;20021;-74
2021/06/18 09:27:49;;;;;;;3.30;2.60;;;;;;;26.30;43.77;99451.38;5052895;28;20017;-75
2021/06/18 09:30:26;;;;;;;2.97;2.75;;;;;;;26.71;42.28;99497.88;5052864;28;20100;-73
2021/06/18 09:32:59;;;;;;;5.32;4.47;;;;;;;26.68;42.54;99455.13;5051512;28;20075;-76
2021/06/18 09:35:25;;;;;;;2.70;2.50;;;;;;;26.68;41.57;99449.69;5052559;28;20017;-75
2021/06/18 09:38:05;;;;;;;3.40;2.20;;;;;;;26.98;40.53;99488.47;5052571;28;20048;-76
2021/06/18 09:40:31;;;;;;;4.10;2.85;;;;;;;26.89;42.60;99493.69;5052407;28;20020;-74
2021/06/18 09:43:01;;;;;;;7.85;3.95;;;;;;;26.68;43.76;99475.97;5051057;28;20405;-73
2021/06/18 09:45:26;;;;;;;7.22;3.85;;;;;;;26.64;44.09;99488.47;5052997;28;20029;-75
2021/06/18 09:47:53;;;;;;;4.47;3.80;;;;;;;26.35;44.95;99470.31;5052583;28;20082;-77
2021/06/18 09:50:28;;;;;;;4.95;3.90;;;;;;;26.31;45.44;99474.66;5052158;28;20551;-75
2021/06/18 09:53:10;;;;;;;3.92;3.50;;;;;;;26.36;45.44;99488.16;5052083;28;20033;-76
2021/06/18 09:55:35;;;;;;;;;;;;;;;26.22;45.63;99485.28;5069111;28;20528;-75
2021/06/18 09:58:00;;;;;;;7.13;5.15;;;;;;;25.89;45.57;99412.97;5071955;28;19916;-75
2021/06/18 10:00:27;;;;;;;4.57;3.50;;;;;;;26.34;45.16;99484.13;5071955;28;20481;-73
2021/06/18 10:02:54;;;;;;;6.45;4.53;;;;;;;26.07;44.58;99433.16;5072326;28;20111;-75
2021/06/18 10:05:24;;;;;;;10.02;3.58;;;;;;;26.34;44.36;99487.66;5071791;28;20103;-74
2021/06/18 10:07:53;;;;;;;4.07;2.70;;;;;;;26.28;44.31;99480.63;5072109;28;20103;-75
2021/06/18 10:10:20;;;;;;;5.28;3.53;;;;;;;26.20;44.19;99473.13;5071753;28;20036;-75
2021/06/18 10:12:47;;;;;;;4.50;3.40;;;;;;;26.15;44.70;99471.25;5071730;28;20020;-75
2021/06/18 10:15:16;;;;;;;3.08;2.78;;;;;;;25.97;44.35;99439.44;5071834;28;20417;-74
2021/06/18 10:17:44;;;;;;;3.63;3.17;;;;;;;25.99;44.23;99437.25;5071713;28;20025;-75
2021/06/18 10:20:16;;;;;;;4.03;2.83;;;;;;;26.10;44.22;99454.25;5071729;28;20489;-73
2021/06/18 10:22:51;;;;;;;4.90;3.60;;;;;;;26.15;44.51;99456.91;5071815;28;20078;-77
2021/06/18 10:25:22;;;;;;;4.40;3.83;;;;;;;25.57;44.68;99373.69;5074065;28;20489;-76
2021/06/18 10:27:49;;;;;;;4.50;3.30;;;;;;;26.07;44.92;99454.81;5071566;28;20021;-76
2021/06/18 10:30:28;;;;;;;6.63;3.22;;;;;;;26.00;45.17;99460.50;5071143;28;20059;-73
2021/06/18 10:32:56;;;;;;;4.32;3.20;;;;;;;25.92;45.44;99453.81;5071322;28;20107;-75
2021/06/18 10:36:10;;;;;;;3.30;3.00;;;;;;;25.87;45.41;99448.44;5069953;28;20024;-74
2021/06/18 10:38:33;;;;;;;;;;;;;;;25.64;46.37;99446.38;5071471;28;20044;-74
2021/06/18 10:41:03;;;;;;;4.88;3.38;;;;;;;25.60;46.15;99434.50;5071271;28;19919;-75
2021/06/18 10:43:43;;;;;;;3.63;3.30;;;;;;;25.46;47.42;99417.28;5071227;28;20021;-75
2021/06/18 10:46:19;;;;;;;3.92;2.92;;;;;;;25.56;47.25;99441.56;5069825;28;20162;-76
2021/06/18 10:48:51;;;;;;;5.18;3.53;;;;;;;25.48;47.44;99444.84;5071293;28;20028;-76
2021/06/18 10:51:25;;;;;;;5.55;3.35;;;;;;;25.38;48.24;99442.19;5071139;28;20020;-74
2021/06/18 10:53:54;;;;;;;5.97;4.50;;;;;;;24.96;48.82;99376.66;5071393;28;20028;-73
2021/06/18 10:56:20;;;;;;;14.20;4.18;;;;;;;25.31;48.91;99432.50;5071090;28;20032;-74
2021/06/18 10:59:08;;;;;;;13.38;5.78;;;;;;;24.95;49.01;99390.44;5070293;28;20029;-74
2021/06/18 11:01:37;;;;;;;7.40;3.83;;;;;;;25.19;49.66;99440.06;5071088;28;20025;-75
2021/06/18 11:04:04;;;;;;;12.30;4.28;;;;;;;24.96;49.66;99397.44;5069627;28;20021;-74
2021/06/18 11:06:49;;;;;;;9.43;4.25;;;;;;;25.14;49.57;99436.59;5071346;28;20130;-74
2021/06/18 11:09:43;;;;;;;8.68;4.30;;;;;;;25.13;50.16;99422.28;5069675;28;20375;-75
2021/06/18 11:12:44;;;;;;;9.02;4.78;;;;;;;25.12;50.26;99436.88;5068817;28;20036;-75
2021/06/18 11:15:21;;;;;;;11.13;6.05;;;;;;;25.13;50.32;99430.38;5069724;28;20497;-76
2021/06/18 11:17:59;;;;;;;8.98;3.95;;;;;;;25.14;49.81;99434.69;5070694;28;20481;-74
2021/06/18 11:20:49;;;;;;;5.78;4.00;;;;;;;25.13;50.06;99424.97;5069640;28;20107;-75
2021/06/18 11:23:26;;;;;;;6.80;3.80;;;;;;;25.00;50.06;99412.06;5067854;28;20475;-75
2021/06/18 11:26:06;;;;;;;8.60;4.25;;;;;;;24.82;50.13;99377.53;5070818;28;20024;-74
2021/06/18 11:28:35;;;;;;;5.72;3.72;;;;;;;25.10;50.30;99425.53;5069957;28;20436;-75
2021/06/18 11:31:34;;;;;;;5.00;3.45;;;;;;;25.08;50.42;99426.88;5070841;28;20036;-73
2021/06/18 11:34:00;;;;;;;4.85;3.55;;;;;;;24.92;50.73;99410.69;5058791;28;20517;-75
2021/06/18 11:36:33;;;;;;;4.65;3.72;;;;;;;25.08;50.59;99416.88;5071085;28;20036;-75
2021/06/18 11:39:10;;;;;;;5.45;3.25;;;;;;;24.88;50.92;99373.72;5070552;28;20412;-74
2021/06/18 11:41:42;;;;;;;4.10;3.60;;;;;;;25.12;51.09;99417.94;5071009;28;20111;-72